Hackettstown, NJ (07840)

7:25 PM EDT on April 26, 2015 (GMT -0400)
Panther Valley Golf Course | | Change Station
CLOSE
Current Station
Personal Weather Station
Location: Allamuchy, NJ
Elevation: 610 ft
Nearby Weather Stations

Elev 610 ft 40.90 °N, 74.85 °W | Updated 2 seconds ago

Partly Cloudy
Partly Cloudy
52.1 °F
Feels Like 52.1 °F
N
5.0
Wind Variable Wind from North
Gusts 11.0 mph

Today
High -- | Low -- °F
--% Chance of Precip.
Yesterday
High -- | Low -- °F
Precip. -- in
6:04 AM 7:50 PM
First Quarter, 59% visible
Pressure 29.66 in
Visibility 10.0 miles
Clouds Mostly Cloudy 9000 ft
Dew Point 30 °F
Humidity 43%
Rainfall 0.00 in
Snow Depth Not available.
UV 0.0 out of 12
Pollen 10.10 out of 12
Air Quality Not available.
Flu Activity Local Activity
METAR KSMQ 262253Z AUTO 35008KT 10SM BKN090 16/M03 A2965 RMK AO2 SLP042 T01561033 TSNO

More Conditions Fewer Conditions

Pressure 29.66 in
Visibility 10.0 miles
Clouds Mostly Cloudy 9000 ft
Dew Point 30 °F
Humidity 43%
Rainfall 0.00 in
Snow Depth Not available.
UV 0.0 out of 12
Pollen 10.10 out of 12
Air Quality Not available.
Flu Activity Local Activity
METAR KSMQ 262253Z AUTO 35008KT 10SM BKN090 16/M03 A2965 RMK AO2 SLP042 T01561033 TSNO

More Conditions Fewer Conditions

The full scope of the disaster following a powerful 7.8-magnitude earthquake in Nepal may not come into view for days, but global charities are already sending emergency aid. Click to see how you can help.

10-Day Weather Forecast

Almanac

Astronomy

Apr. 26, 2015 Rise Set
Actual Time
Civil Twilight
Nautical Twilight
Astronomical Twilight
Moon
Length of Visible Light
Length of Day
Tomorrow will be .
, % of the Moon is Illuminated

Today's Extremes

State Highs State Lows

Community

WunderPhotos

Upload Photos

1,817,159 photos uploaded!

WunderBlogs® & News

Nearby

Air Quality

  Air Quality AQ Index Pollutant
Not available.

Snow Depth

Station Depth Elevation

Earthquake Activity

City Distance Mag. Time & Date
Minimum magnitude displayed is 2.5.

Coastal Water Temperatures

Place Temperature

Stations

Nearby Weather Stations

Station Location Temp. Windchill Dew Point Humidity Wind Precip. Elev Updated Type